sensor_id;sensor_type;location;lat;lon;timestamp;temperature;humidity
19552;DHT22;9921;47.186;9.778;2023-05-21T00:01:03;15.20;99.90
19552;DHT22;9921;47.186;9.778;2023-05-21T00:03:31;15.10;99.90
19552;DHT22;9921;47.186;9.778;2023-05-21T00:05:58;15.10;99.90
19552;DHT22;9921;47.186;9.778;2023-05-21T00:08:26;15.10;99.90
19552;DHT22;9921;47.186;9.778;2023-05-21T00:10:53;15.10;99.90
19552;DHT22;9921;47.186;9.778;2023-05-21T00:13:21;15.10;99.90
19552;DHT22;9921;47.186;9.778;2023-05-21T00:15:48;15.00;99.90
19552;DHT22;9921;47.186;9.778;2023-05-21T00:18:15;15.00;99.90
19552;DHT22;9921;47.186;9.778;2023-05-21T00:20:42;14.80;99.90
19552;DHT22;9921;47.186;9.778;2023-05-21T00:23:10;14.80;99.90
19552;DHT22;9921;47.186;9.778;2023-05-21T00:25:37;14.80;99.90
19552;DHT22;9921;47.186;9.778;2023-05-21T00:28:04;14.70;99.90
19552;DHT22;9921;47.186;9.778;2023-05-21T00:30:32;14.70;99.90
19552;DHT22;9921;47.186;9.778;2023-05-21T00:32:59;14.70;99.90
19552;DHT22;9921;47.186;9.778;2023-05-21T00:35:27;14.80;99.90
19552;DHT22;9921;47.186;9.778;2023-05-21T00:37:54;14.80;99.90
19552;DHT22;9921;47.186;9.778;2023-05-21T00:40:21;14.80;99.90
19552;DHT22;9921;47.186;9.778;2023-05-21T00:42:47;14.80;99.90
19552;DHT22;9921;47.186;9.778;2023-05-21T00:45:14;14.60;99.90
19552;DHT22;9921;47.186;9.778;2023-05-21T00:47:43;14.60;99.90
19552;DHT22;9921;47.186;9.778;2023-05-21T00:50:13;14.60;99.90
19552;DHT22;9921;47.186;9.778;2023-05-21T00:52:42;14.60;99.90
19552;DHT22;9921;47.186;9.778;2023-05-21T00:55:10;14.60;99.90
19552;DHT22;9921;47.186;9.778;2023-05-21T00:57:37;14.40;99.90
19552;DHT22;9921;47.186;9.778;2023-05-21T01:00:06;14.40;99.90
19552;DHT22;9921;47.186;9.778;2023-05-21T01:02:35;14.40;99.90
19552;DHT22;9921;47.186;9.778;2023-05-21T01:05:04;14.40;99.90
19552;DHT22;9921;47.186;9.778;2023-05-21T01:07:32;14.40;99.90
19552;DHT22;9921;47.186;9.778;2023-05-21T01:10:01;14.30;99.90
19552;DHT22;9921;47.186;9.778;2023-05-21T01:12:29;14.20;99.90
19552;DHT22;9921;47.186;9.778;2023-05-21T01:14:58;13.90;99.90
19552;DHT22;9921;47.186;9.778;2023-05-21T01:17:26;13.90;99.90
19552;DHT22;9921;47.186;9.778;2023-05-21T01:19:54;13.80;99.90
19552;DHT22;9921;47.186;9.778;2023-05-21T01:22:24;13.90;99.90
19552;DHT22;9921;47.186;9.778;2023-05-21T01:24:54;14.00;99.90
19552;DHT22;9921;47.186;9.778;2023-05-21T01:27:21;14.00;99.90
19552;DHT22;9921;47.186;9.778;2023-05-21T01:29:48;13.90;99.90
19552;DHT22;9921;47.186;9.778;2023-05-21T01:32:21;13.80;99.90
19552;DHT22;9921;47.186;9.778;2023-05-21T01:35:05;13.80;99.90
19552;DHT22;9921;47.186;9.778;2023-05-21T01:37:36;13.80;99.90
19552;DHT22;9921;47.186;9.778;2023-05-21T01:40:10;13.80;99.90
19552;DHT22;9921;47.186;9.778;2023-05-21T01:42:42;13.90;99.90
19552;DHT22;9921;47.186;9.778;2023-05-21T01:45:11;13.90;99.90
19552;DHT22;9921;47.186;9.778;2023-05-21T01:47:40;13.80;99.90
19552;DHT22;9921;47.186;9.778;2023-05-21T01:50:08;13.60;99.90
19552;DHT22;9921;47.186;9.778;2023-05-21T01:52:35;13.40;99.90
19552;DHT22;9921;47.186;9.778;2023-05-21T01:55:03;13.40;99.90
19552;DHT22;9921;47.186;9.778;2023-05-21T01:57:31;13.50;99.90
19552;DHT22;9921;47.186;9.778;2023-05-21T01:59:58;13.50;99.90
19552;DHT22;9921;47.186;9.778;2023-05-21T02:02:25;13.60;99.90
19552;DHT22;9921;47.186;9.778;2023-05-21T02:04:52;13.60;99.90
19552;DHT22;9921;47.186;9.778;2023-05-21T02:07:19;13.60;99.90
19552;DHT22;9921;47.186;9.778;2023-05-21T02:09:47;13.60;99.90
19552;DHT22;9921;47.186;9.778;2023-05-21T02:12:14;13.50;99.90
19552;DHT22;9921;47.186;9.778;2023-05-21T02:14:42;13.50;99.90
19552;DHT22;9921;47.186;9.778;2023-05-21T02:17:11;13.60;99.90
19552;DHT22;9921;47.186;9.778;2023-05-21T02:19:38;13.60;99.90
19552;DHT22;9921;47.186;9.778;2023-05-21T02:22:06;13.50;99.90
19552;DHT22;9921;47.186;9.778;2023-05-21T02:24:33;13.40;99.90
19552;DHT22;9921;47.186;9.778;2023-05-21T02:27:00;13.40;99.90
19552;DHT22;9921;47.186;9.778;2023-05-21T02:29:27;13.30;99.90
19552;DHT22;9921;47.186;9.778;2023-05-21T02:31:55;12.90;99.90
19552;DHT22;9921;47.186;9.778;2023-05-21T02:34:22;12.80;99.90
19552;DHT22;9921;47.186;9.778;2023-05-21T02:36:49;12.70;99.90
19552;DHT22;9921;47.186;9.778;2023-05-21T02:39:17;12.80;99.90
19552;DHT22;9921;47.186;9.778;2023-05-21T02:41:44;12.70;99.90
19552;DHT22;9921;47.186;9.778;2023-05-21T02:44:11;12.70;99.90
19552;DHT22;9921;47.186;9.778;2023-05-21T02:46:38;12.80;99.90
19552;DHT22;9921;47.186;9.778;2023-05-21T02:49:06;13.00;99.90
19552;DHT22;9921;47.186;9.778;2023-05-21T02:51:33;13.10;99.90
19552;DHT22;9921;47.186;9.778;2023-05-21T02:54:00;13.10;99.90
19552;DHT22;9921;47.186;9.778;2023-05-21T02:56:27;13.20;99.90
19552;DHT22;9921;47.186;9.778;2023-05-21T02:58:54;13.10;99.90
19552;DHT22;9921;47.186;9.778;2023-05-21T03:01:21;13.00;99.90
19552;DHT22;9921;47.186;9.778;2023-05-21T03:03:47;13.10;99.90
19552;DHT22;9921;47.186;9.778;2023-05-21T03:06:16;12.90;99.90
19552;DHT22;9921;47.186;9.778;2023-05-21T03:08:42;12.70;99.90
19552;DHT22;9921;47.186;9.778;2023-05-21T03:11:09;12.60;99.90
19552;DHT22;9921;47.186;9.778;2023-05-21T03:13:36;12.60;99.90
19552;DHT22;9921;47.186;9.778;2023-05-21T03:16:04;12.70;99.90
19552;DHT22;9921;47.186;9.778;2023-05-21T03:18:30;12.80;99.90
19552;DHT22;9921;47.186;9.778;2023-05-21T03:20:57;12.90;99.90
19552;DHT22;9921;47.186;9.778;2023-05-21T03:23:26;13.00;99.90
19552;DHT22;9921;47.186;9.778;2023-05-21T03:25:52;13.10;99.90
19552;DHT22;9921;47.186;9.778;2023-05-21T03:28:19;13.10;99.90
19552;DHT22;9921;47.186;9.778;2023-05-21T03:30:46;12.80;99.90
19552;DHT22;9921;47.186;9.778;2023-05-21T03:33:14;12.80;99.90
19552;DHT22;9921;47.186;9.778;2023-05-21T03:35:41;12.90;99.90
19552;DHT22;9921;47.186;9.778;2023-05-21T03:38:08;13.00;99.90
19552;DHT22;9921;47.186;9.778;2023-05-21T03:40:36;13.00;99.90
19552;DHT22;9921;47.186;9.778;2023-05-21T03:43:03;12.80;99.90
19552;DHT22;9921;47.186;9.778;2023-05-21T03:45:30;12.80;99.90
19552;DHT22;9921;47.186;9.778;2023-05-21T03:47:57;12.90;99.90
19552;DHT22;9921;47.186;9.778;2023-05-21T03:50:24;13.00;99.90
19552;DHT22;9921;47.186;9.778;2023-05-21T03:52:51;13.10;99.90
19552;DHT22;9921;47.186;9.778;2023-05-21T03:55:17;13.10;99.90
19552;DHT22;9921;47.186;9.778;2023-05-21T03:57:46;13.10;99.90
19552;DHT22;9921;47.186;9.778;2023-05-21T04:00:13;13.00;99.90
19552;DHT22;9921;47.186;9.778;2023-05-21T04:02:40;13.00;99.90
19552;DHT22;9921;47.186;9.778;2023-05-21T04:05:07;13.00;99.90
19552;DHT22;9921;47.186;9.778;2023-05-21T04:07:34;12.80;99.90
19552;DHT22;9921;47.186;9.778;2023-05-21T04:10:03;12.80;99.90
19552;DHT22;9921;47.186;9.778;2023-05-21T04:12:30;13.00;99.90
19552;DHT22;9921;47.186;9.778;2023-05-21T04:14:58;13.00;99.90
19552;DHT22;9921;47.186;9.778;2023-05-21T04:17:27;13.00;99.90
19552;DHT22;9921;47.186;9.778;2023-05-21T04:19:54;13.10;99.90
19552;DHT22;9921;47.186;9.778;2023-05-21T04:22:20;13.00;99.90
19552;DHT22;9921;47.186;9.778;2023-05-21T04:24:51;12.80;99.90
19552;DHT22;9921;47.186;9.778;2023-05-21T04:27:19;12.80;99.90
19552;DHT22;9921;47.186;9.778;2023-05-21T04:29:48;12.70;99.90
19552;DHT22;9921;47.186;9.778;2023-05-21T04:32:16;12.70;99.90
19552;DHT22;9921;47.186;9.778;2023-05-21T04:34:43;12.80;99.90
19552;DHT22;9921;47.186;9.778;2023-05-21T04:37:10;12.90;99.90
19552;DHT22;9921;47.186;9.778;2023-05-21T04:39:37;13.00;99.90
19552;DHT22;9921;47.186;9.778;2023-05-21T04:42:05;13.10;99.90
19552;DHT22;9921;47.186;9.778;2023-05-21T04:44:35;13.20;99.90
19552;DHT22;9921;47.186;9.778;2023-05-21T04:47:02;13.30;99.90
19552;DHT22;9921;47.186;9.778;2023-05-21T04:49:30;13.20;99.90
19552;DHT22;9921;47.186;9.778;2023-05-21T04:51:59;13.10;99.90
19552;DHT22;9921;47.186;9.778;2023-05-21T04:54:26;13.10;99.90
19552;DHT22;9921;47.186;9.778;2023-05-21T04:56:53;13.10;99.90
19552;DHT22;9921;47.186;9.778;2023-05-21T04:59:20;13.20;99.90
19552;DHT22;9921;47.186;9.778;2023-05-21T05:01:47;13.30;99.90
19552;DHT22;9921;47.186;9.778;2023-05-21T05:04:14;13.30;99.90
19552;DHT22;9921;47.186;9.778;2023-05-21T05:06:42;13.40;99.90
19552;DHT22;9921;47.186;9.778;2023-05-21T05:09:09;13.50;99.90
19552;DHT22;9921;47.186;9.778;2023-05-21T05:11:36;13.60;99.90
19552;DHT22;9921;47.186;9.778;2023-05-21T05:14:03;13.80;99.90
19552;DHT22;9921;47.186;9.778;2023-05-21T05:16:29;13.90;99.90
19552;DHT22;9921;47.186;9.778;2023-05-21T05:18:56;13.90;99.90
19552;DHT22;9921;47.186;9.778;2023-05-21T05:21:23;13.80;99.90
19552;DHT22;9921;47.186;9.778;2023-05-21T05:23:51;13.80;99.90
19552;DHT22;9921;47.186;9.778;2023-05-21T05:26:18;13.80;99.90
19552;DHT22;9921;47.186;9.778;2023-05-21T05:28:45;13.90;99.90
19552;DHT22;9921;47.186;9.778;2023-05-21T05:31:12;14.10;99.90
19552;DHT22;9921;47.186;9.778;2023-05-21T05:33:39;14.20;99.90
19552;DHT22;9921;47.186;9.778;2023-05-21T05:36:06;14.30;99.90
19552;DHT22;9921;47.186;9.778;2023-05-21T05:38:33;14.40;99.90
19552;DHT22;9921;47.186;9.778;2023-05-21T05:41:02;14.50;99.90
19552;DHT22;9921;47.186;9.778;2023-05-21T05:43:29;14.60;99.90
19552;DHT22;9921;47.186;9.778;2023-05-21T05:45:56;14.60;99.90
19552;DHT22;9921;47.186;9.778;2023-05-21T05:48:22;14.60;99.90
19552;DHT22;9921;47.186;9.778;2023-05-21T05:50:49;14.70;99.90
19552;DHT22;9921;47.186;9.778;2023-05-21T05:53:19;14.80;99.90
19552;DHT22;9921;47.186;9.778;2023-05-21T05:55:46;14.90;99.90
19552;DHT22;9921;47.186;9.778;2023-05-21T05:58:14;14.80;99.90
19552;DHT22;9921;47.186;9.778;2023-05-21T06:00:41;14.80;99.90
19552;DHT22;9921;47.186;9.778;2023-05-21T06:03:08;14.90;99.90
19552;DHT22;9921;47.186;9.778;2023-05-21T06:05:36;14.90;99.90
19552;DHT22;9921;47.186;9.778;2023-05-21T06:08:03;15.00;99.90
19552;DHT22;9921;47.186;9.778;2023-05-21T06:10:30;15.00;99.90
19552;DHT22;9921;47.186;9.778;2023-05-21T06:12:57;15.10;99.90
19552;DHT22;9921;47.186;9.778;2023-05-21T06:15:25;15.20;99.90
19552;DHT22;9921;47.186;9.778;2023-05-21T06:17:52;15.20;99.90
19552;DHT22;9921;47.186;9.778;2023-05-21T06:20:19;15.30;99.90
19552;DHT22;9921;47.186;9.778;2023-05-21T06:22:46;15.40;99.90
19552;DHT22;9921;47.186;9.778;2023-05-21T06:25:13;15.40;99.90
19552;DHT22;9921;47.186;9.778;2023-05-21T06:27:40;15.60;99.90
19552;DHT22;9921;47.186;9.778;2023-05-21T06:30:08;15.60;99.90
19552;DHT22;9921;47.186;9.778;2023-05-21T06:32:36;15.50;99.90
19552;DHT22;9921;47.186;9.778;2023-05-21T06:35:03;15.50;99.90
19552;DHT22;9921;47.186;9.778;2023-05-21T06:37:30;15.50;99.90
19552;DHT22;9921;47.186;9.778;2023-05-21T06:39:57;15.30;99.90
19552;DHT22;9921;47.186;9.778;2023-05-21T06:42:24;15.20;99.90
19552;DHT22;9921;47.186;9.778;2023-05-21T06:44:51;15.20;99.90
19552;DHT22;9921;47.186;9.778;2023-05-21T06:47:18;15.30;99.90
19552;DHT22;9921;47.186;9.778;2023-05-21T06:49:46;15.40;99.90
19552;DHT22;9921;47.186;9.778;2023-05-21T06:52:13;15.60;99.90
19552;DHT22;9921;47.186;9.778;2023-05-21T06:54:40;15.70;99.90
19552;DHT22;9921;47.186;9.778;2023-05-21T06:57:07;15.80;99.90
19552;DHT22;9921;47.186;9.778;2023-05-21T06:59:34;15.80;99.90
19552;DHT22;9921;47.186;9.778;2023-05-21T07:02:01;15.90;99.90
19552;DHT22;9921;47.186;9.778;2023-05-21T07:04:27;16.00;99.90
19552;DHT22;9921;47.186;9.778;2023-05-21T07:06:56;16.20;99.90
19552;DHT22;9921;47.186;9.778;2023-05-21T07:09:23;16.30;99.90
19552;DHT22;9921;47.186;9.778;2023-05-21T07:11:49;16.40;99.90
19552;DHT22;9921;47.186;9.778;2023-05-21T07:14:17;16.50;99.90
19552;DHT22;9921;47.186;9.778;2023-05-21T07:16:44;16.60;99.90
19552;DHT22;9921;47.186;9.778;2023-05-21T07:19:11;16.80;99.90
19552;DHT22;9921;47.186;9.778;2023-05-21T07:21:38;16.90;99.90
19552;DHT22;9921;47.186;9.778;2023-05-21T07:24:06;17.00;99.90
19552;DHT22;9921;47.186;9.778;2023-05-21T07:26:33;17.30;99.90
19552;DHT22;9921;47.186;9.778;2023-05-21T07:29:00;17.30;99.90
19552;DHT22;9921;47.186;9.778;2023-05-21T07:31:27;17.50;99.90
19552;DHT22;9921;47.186;9.778;2023-05-21T07:33:54;17.60;99.90
19552;DHT22;9921;47.186;9.778;2023-05-21T07:36:20;17.70;99.90
19552;DHT22;9921;47.186;9.778;2023-05-21T07:38:47;17.90;99.90
19552;DHT22;9921;47.186;9.778;2023-05-21T07:41:16;18.00;99.90
19552;DHT22;9921;47.186;9.778;2023-05-21T07:43:42;18.00;99.90
19552;DHT22;9921;47.186;9.778;2023-05-21T07:46:09;18.10;99.90
19552;DHT22;9921;47.186;9.778;2023-05-21T07:48:36;18.20;99.90
19552;DHT22;9921;47.186;9.778;2023-05-21T07:51:03;18.40;99.90
19552;DHT22;9921;47.186;9.778;2023-05-21T07:53:30;18.40;99.90
19552;DHT22;9921;47.186;9.778;2023-05-21T07:55:58;18.60;99.90
19552;DHT22;9921;47.186;9.778;2023-05-21T07:58:26;18.70;99.90
19552;DHT22;9921;47.186;9.778;2023-05-21T08:00:53;18.80;99.90
19552;DHT22;9921;47.186;9.778;2023-05-21T08:03:20;19.00;99.90
19552;DHT22;9921;47.186;9.778;2023-05-21T08:05:47;19.10;99.90
19552;DHT22;9921;47.186;9.778;2023-05-21T08:08:15;19.20;99.90
19552;DHT22;9921;47.186;9.778;2023-05-21T08:10:42;19.40;99.90
19552;DHT22;9921;47.186;9.778;2023-05-21T08:13:10;19.50;99.90
19552;DHT22;9921;47.186;9.778;2023-05-21T08:15:39;19.60;99.90
19552;DHT22;9921;47.186;9.778;2023-05-21T08:18:05;19.70;99.90
19552;DHT22;9921;47.186;9.778;2023-05-21T08:20:32;19.60;99.90
19552;DHT22;9921;47.186;9.778;2023-05-21T08:22:59;19.60;99.90
19552;DHT22;9921;47.186;9.778;2023-05-21T08:25:26;19.70;99.90
19552;DHT22;9921;47.186;9.778;2023-05-21T08:27:53;19.80;99.90
19552;DHT22;9921;47.186;9.778;2023-05-21T08:30:20;19.80;99.90
19552;DHT22;9921;47.186;9.778;2023-05-21T08:32:49;19.90;99.90
19552;DHT22;9921;47.186;9.778;2023-05-21T08:35:15;20.10;99.90
19552;DHT22;9921;47.186;9.778;2023-05-21T08:37:42;20.30;99.90
19552;DHT22;9921;47.186;9.778;2023-05-21T08:40:10;20.40;99.90
19552;DHT22;9921;47.186;9.778;2023-05-21T08:42:42;20.60;99.90
19552;DHT22;9921;47.186;9.778;2023-05-21T08:45:11;20.80;99.90
19552;DHT22;9921;47.186;9.778;2023-05-21T08:47:41;20.90;99.90
19552;DHT22;9921;47.186;9.778;2023-05-21T08:50:12;21.00;99.90
19552;DHT22;9921;47.186;9.778;2023-05-21T08:52:39;21.10;99.90
19552;DHT22;9921;47.186;9.778;2023-05-21T08:55:07;20.90;99.90
19552;DHT22;9921;47.186;9.778;2023-05-21T08:57:35;20.90;99.90
19552;DHT22;9921;47.186;9.778;2023-05-21T09:00:03;21.10;99.90
19552;DHT22;9921;47.186;9.778;2023-05-21T09:02:33;21.30;99.90
19552;DHT22;9921;47.186;9.778;2023-05-21T09:05:01;21.70;99.90
19552;DHT22;9921;47.186;9.778;2023-05-21T09:07:35;22.20;99.90
19552;DHT22;9921;47.186;9.778;2023-05-21T09:10:06;22.80;99.90
19552;DHT22;9921;47.186;9.778;2023-05-21T09:12:34;23.50;99.90
19552;DHT22;9921;47.186;9.778;2023-05-21T09:15:02;24.40;99.90
19552;DHT22;9921;47.186;9.778;2023-05-21T09:17:29;25.00;99.90
19552;DHT22;9921;47.186;9.778;2023-05-21T09:20:10;25.70;99.90
19552;DHT22;9921;47.186;9.778;2023-05-21T09:22:41;26.40;99.90
19552;DHT22;9921;47.186;9.778;2023-05-21T09:25:09;26.90;99.90
19552;DHT22;9921;47.186;9.778;2023-05-21T09:27:36;27.80;99.90
19552;DHT22;9921;47.186;9.778;2023-05-21T09:30:08;28.10;99.90
19552;DHT22;9921;47.186;9.778;2023-05-21T09:32:35;28.50;99.90
19552;DHT22;9921;47.186;9.778;2023-05-21T09:35:08;28.60;99.90
19552;DHT22;9921;47.186;9.778;2023-05-21T09:37:36;28.80;99.90
19552;DHT22;9921;47.186;9.778;2023-05-21T09:40:11;28.90;99.90
19552;DHT22;9921;47.186;9.778;2023-05-21T09:42:40;29.10;99.90
19552;DHT22;9921;47.186;9.778;2023-05-21T09:45:08;29.20;99.90
19552;DHT22;9921;47.186;9.778;2023-05-21T09:47:40;29.40;99.90
19552;DHT22;9921;47.186;9.778;2023-05-21T09:50:09;29.50;99.90
19552;DHT22;9921;47.186;9.778;2023-05-21T09:52:36;29.30;99.90
19552;DHT22;9921;47.186;9.778;2023-05-21T09:55:03;29.30;99.90
19552;DHT22;9921;47.186;9.778;2023-05-21T09:57:32;28.90;99.90
19552;DHT22;9921;47.186;9.778;2023-05-21T09:59:58;28.60;99.90
19552;DHT22;9921;47.186;9.778;2023-05-21T10:02:25;28.10;99.90
19552;DHT22;9921;47.186;9.778;2023-05-21T10:04:53;27.70;99.90
19552;DHT22;9921;47.186;9.778;2023-05-21T10:07:21;27.70;99.90
19552;DHT22;9921;47.186;9.778;2023-05-21T10:09:53;27.60;99.90
19552;DHT22;9921;47.186;9.778;2023-05-21T10:12:23;27.50;99.90
19552;DHT22;9921;47.186;9.778;2023-05-21T10:14:59;27.20;99.90
19552;DHT22;9921;47.186;9.778;2023-05-21T10:17:27;26.90;99.90
19552;DHT22;9921;47.186;9.778;2023-05-21T10:19:55;26.60;99.90
19552;DHT22;9921;47.186;9.778;2023-05-21T10:22:23;26.40;99.90
19552;DHT22;9921;47.186;9.778;2023-05-21T10:24:51;26.30;99.90
19552;DHT22;9921;47.186;9.778;2023-05-21T10:27:18;26.40;99.90
19552;DHT22;9921;47.186;9.778;2023-05-21T10:29:47;26.40;99.90
19552;DHT22;9921;47.186;9.778;2023-05-21T10:32:15;26.60;99.90
19552;DHT22;9921;47.186;9.778;2023-05-21T10:34:43;26.80;99.90
19552;DHT22;9921;47.186;9.778;2023-05-21T10:37:12;27.10;99.90
19552;DHT22;9921;47.186;9.778;2023-05-21T10:39:39;27.60;99.90
19552;DHT22;9921;47.186;9.778;2023-05-21T10:42:15;27.70;99.90
19552;DHT22;9921;47.186;9.778;2023-05-21T10:44:59;27.70;99.90
19552;DHT22;9921;47.186;9.778;2023-05-21T10:47:45;27.90;99.90
19552;DHT22;9921;47.186;9.778;2023-05-21T10:50:39;28.10;99.90
19552;DHT22;9921;47.186;9.778;2023-05-21T10:53:15;28.30;99.90
19552;DHT22;9921;47.186;9.778;2023-05-21T10:55:55;28.30;99.90
19552;DHT22;9921;47.186;9.778;2023-05-21T11:01:27;28.10;99.90
19552;DHT22;9921;47.186;9.778;2023-05-21T11:03:55;28.10;99.90
19552;DHT22;9921;47.186;9.778;2023-05-21T11:06:25;27.90;99.90
19552;DHT22;9921;47.186;9.778;2023-05-21T11:08:52;27.80;99.90
19552;DHT22;9921;47.186;9.778;2023-05-21T11:11:39;27.60;99.90
19552;DHT22;9921;47.186;9.778;2023-05-21T11:14:27;27.60;99.90
19552;DHT22;9921;47.186;9.778;2023-05-21T11:16:56;27.30;99.90
19552;DHT22;9921;47.186;9.778;2023-05-21T11:19:34;27.20;99.90
19552;DHT22;9921;47.186;9.778;2023-05-21T11:22:05;26.90;99.90
19552;DHT22;9921;47.186;9.778;2023-05-21T11:24:33;26.60;99.90
19552;DHT22;9921;47.186;9.778;2023-05-21T11:27:03;26.30;99.90
19552;DHT22;9921;47.186;9.778;2023-05-21T11:29:41;26.10;99.90
19552;DHT22;9921;47.186;9.778;2023-05-21T11:32:10;26.00;99.90
19552;DHT22;9921;47.186;9.778;2023-05-21T11:34:39;26.00;99.90
19552;DHT22;9921;47.186;9.778;2023-05-21T11:37:37;26.00;99.90
19552;DHT22;9921;47.186;9.778;2023-05-21T11:40:16;26.00;99.90
19552;DHT22;9921;47.186;9.778;2023-05-21T11:42:48;26.10;99.90
19552;DHT22;9921;47.186;9.778;2023-05-21T11:45:17;26.30;99.90
19552;DHT22;9921;47.186;9.778;2023-05-21T11:47:45;26.40;99.90
19552;DHT22;9921;47.186;9.778;2023-05-21T11:50:14;26.70;99.90
19552;DHT22;9921;47.186;9.778;2023-05-21T11:52:41;26.80;99.90
19552;DHT22;9921;47.186;9.778;2023-05-21T11:55:09;27.10;99.90
19552;DHT22;9921;47.186;9.778;2023-05-21T11:57:36;27.50;99.90
19552;DHT22;9921;47.186;9.778;2023-05-21T12:00:04;27.80;99.90
19552;DHT22;9921;47.186;9.778;2023-05-21T12:02:42;28.10;99.90
19552;DHT22;9921;47.186;9.778;2023-05-21T12:05:09;28.30;99.90
19552;DHT22;9921;47.186;9.778;2023-05-21T12:07:38;28.50;99.90
19552;DHT22;9921;47.186;9.778;2023-05-21T12:10:06;28.30;99.90
19552;DHT22;9921;47.186;9.778;2023-05-21T12:12:33;28.50;99.90
19552;DHT22;9921;47.186;9.778;2023-05-21T12:15:01;28.70;99.90
19552;DHT22;9921;47.186;9.778;2023-05-21T12:17:29;28.70;99.90
19552;DHT22;9921;47.186;9.778;2023-05-21T12:19:57;28.80;99.90
19552;DHT22;9921;47.186;9.778;2023-05-21T12:22:26;28.90;99.90
19552;DHT22;9921;47.186;9.778;2023-05-21T12:24:55;28.90;99.90
19552;DHT22;9921;47.186;9.778;2023-05-21T12:27:25;28.90;99.90
19552;DHT22;9921;47.186;9.778;2023-05-21T12:29:52;28.90;99.90
19552;DHT22;9921;47.186;9.778;2023-05-21T12:32:20;28.80;99.90
19552;DHT22;9921;47.186;9.778;2023-05-21T12:34:48;28.80;99.90
19552;DHT22;9921;47.186;9.778;2023-05-21T12:37:18;28.70;99.90
19552;DHT22;9921;47.186;9.778;2023-05-21T12:39:47;28.60;99.90
19552;DHT22;9921;47.186;9.778;2023-05-21T12:42:16;28.50;99.90
19552;DHT22;9921;47.186;9.778;2023-05-21T12:44:51;28.30;99.90
19552;DHT22;9921;47.186;9.778;2023-05-21T12:47:22;28.10;99.90
19552;DHT22;9921;47.186;9.778;2023-05-21T12:49:49;27.90;99.90
19552;DHT22;9921;47.186;9.778;2023-05-21T12:52:17;27.80;99.90
19552;DHT22;9921;47.186;9.778;2023-05-21T12:54:49;27.70;99.90
19552;DHT22;9921;47.186;9.778;2023-05-21T12:57:19;27.50;99.90
19552;DHT22;9921;47.186;9.778;2023-05-21T12:59:48;27.40;99.90
19552;DHT22;9921;47.186;9.778;2023-05-21T13:02:20;27.30;99.90
19552;DHT22;9921;47.186;9.778;2023-05-21T13:04:47;27.30;99.90
19552;DHT22;9921;47.186;9.778;2023-05-21T13:07:15;27.20;99.90
19552;DHT22;9921;47.186;9.778;2023-05-21T13:09:42;27.10;99.90
19552;DHT22;9921;47.186;9.778;2023-05-21T13:12:10;27.20;99.90
19552;DHT22;9921;47.186;9.778;2023-05-21T13:14:39;27.30;99.90
19552;DHT22;9921;47.186;9.778;2023-05-21T13:17:06;27.40;99.90
19552;DHT22;9921;47.186;9.778;2023-05-21T13:19:33;27.50;99.90
19552;DHT22;9921;47.186;9.778;2023-05-21T13:22:00;27.60;99.90
19552;DHT22;9921;47.186;9.778;2023-05-21T13:24:27;27.80;99.90
19552;DHT22;9921;47.186;9.778;2023-05-21T13:26:53;27.80;99.90
19552;DHT22;9921;47.186;9.778;2023-05-21T13:29:20;27.70;99.90
19552;DHT22;9921;47.186;9.778;2023-05-21T13:31:48;27.50;99.90
19552;DHT22;9921;47.186;9.778;2023-05-21T13:34:15;27.30;99.90
19552;DHT22;9921;47.186;9.778;2023-05-21T13:36:42;27.30;99.90
19552;DHT22;9921;47.186;9.778;2023-05-21T13:39:09;27.30;99.90
19552;DHT22;9921;47.186;9.778;2023-05-21T13:41:36;27.30;99.90
19552;DHT22;9921;47.186;9.778;2023-05-21T13:44:03;27.10;99.90
19552;DHT22;9921;47.186;9.778;2023-05-21T13:46:30;27.00;99.90
19552;DHT22;9921;47.186;9.778;2023-05-21T13:48:58;26.80;99.90
19552;DHT22;9921;47.186;9.778;2023-05-21T13:51:27;26.60;99.90
19552;DHT22;9921;47.186;9.778;2023-05-21T13:53:54;26.50;99.90
19552;DHT22;9921;47.186;9.778;2023-05-21T13:56:21;26.30;99.90
19552;DHT22;9921;47.186;9.778;2023-05-21T13:58:48;26.20;99.90
19552;DHT22;9921;47.186;9.778;2023-05-21T14:01:15;26.10;99.90
19552;DHT22;9921;47.186;9.778;2023-05-21T14:03:42;26.10;99.90
19552;DHT22;9921;47.186;9.778;2023-05-21T14:06:10;26.00;99.90
19552;DHT22;9921;47.186;9.778;2023-05-21T14:08:37;25.90;99.90
19552;DHT22;9921;47.186;9.778;2023-05-21T14:11:04;25.90;99.90
19552;DHT22;9921;47.186;9.778;2023-05-21T14:13:31;26.00;99.90
19552;DHT22;9921;47.186;9.778;2023-05-21T14:15:58;26.20;99.90
19552;DHT22;9921;47.186;9.778;2023-05-21T14:18:25;26.40;99.90
19552;DHT22;9921;47.186;9.778;2023-05-21T14:20:52;26.30;99.90
19552;DHT22;9921;47.186;9.778;2023-05-21T14:23:20;26.40;99.90
19552;DHT22;9921;47.186;9.778;2023-05-21T14:25:47;26.40;99.90
19552;DHT22;9921;47.186;9.778;2023-05-21T14:28:14;26.50;99.90
19552;DHT22;9921;47.186;9.778;2023-05-21T14:30:41;26.50;99.90
19552;DHT22;9921;47.186;9.778;2023-05-21T14:33:08;26.40;99.90
19552;DHT22;9921;47.186;9.778;2023-05-21T14:35:35;26.40;99.90
19552;DHT22;9921;47.186;9.778;2023-05-21T14:38:02;26.40;99.90
19552;DHT22;9921;47.186;9.778;2023-05-21T14:40:30;26.30;99.90
19552;DHT22;9921;47.186;9.778;2023-05-21T14:42:57;26.20;99.90
19552;DHT22;9921;47.186;9.778;2023-05-21T14:45:24;26.10;99.90
19552;DHT22;9921;47.186;9.778;2023-05-21T14:47:51;26.00;99.90
19552;DHT22;9921;47.186;9.778;2023-05-21T14:50:19;25.70;99.90
19552;DHT22;9921;47.186;9.778;2023-05-21T14:52:46;25.60;99.90
19552;DHT22;9921;47.186;9.778;2023-05-21T14:55:13;25.60;99.90
19552;DHT22;9921;47.186;9.778;2023-05-21T14:57:42;25.60;99.90
19552;DHT22;9921;47.186;9.778;2023-05-21T15:00:11;25.50;99.90
19552;DHT22;9921;47.186;9.778;2023-05-21T15:02:37;25.50;99.90
19552;DHT22;9921;47.186;9.778;2023-05-21T15:05:05;25.50;99.90
19552;DHT22;9921;47.186;9.778;2023-05-21T15:07:32;25.40;99.90
19552;DHT22;9921;47.186;9.778;2023-05-21T15:09:59;25.40;99.90
19552;DHT22;9921;47.186;9.778;2023-05-21T15:12:25;25.30;99.90
19552;DHT22;9921;47.186;9.778;2023-05-21T15:14:54;25.30;99.90
19552;DHT22;9921;47.186;9.778;2023-05-21T15:17:21;25.20;99.90
19552;DHT22;9921;47.186;9.778;2023-05-21T15:19:48;25.20;99.90
19552;DHT22;9921;47.186;9.778;2023-05-21T15:22:15;25.20;99.90
19552;DHT22;9921;47.186;9.778;2023-05-21T15:24:42;25.10;99.90
19552;DHT22;9921;47.186;9.778;2023-05-21T15:27:09;25.00;99.90
19552;DHT22;9921;47.186;9.778;2023-05-21T15:29:37;25.00;99.90
19552;DHT22;9921;47.186;9.778;2023-05-21T15:32:05;25.00;99.90
19552;DHT22;9921;47.186;9.778;2023-05-21T15:34:32;24.80;99.90
19552;DHT22;9921;47.186;9.778;2023-05-21T15:36:59;24.80;99.90
19552;DHT22;9921;47.186;9.778;2023-05-21T15:39:26;24.80;99.90
19552;DHT22;9921;47.186;9.778;2023-05-21T15:41:53;24.80;99.90
19552;DHT22;9921;47.186;9.778;2023-05-21T15:44:20;24.70;99.90
19552;DHT22;9921;47.186;9.778;2023-05-21T15:46:47;24.60;99.90
19552;DHT22;9921;47.186;9.778;2023-05-21T15:49:17;24.50;99.90
19552;DHT22;9921;47.186;9.778;2023-05-21T15:51:44;24.40;99.90
19552;DHT22;9921;47.186;9.778;2023-05-21T15:54:11;24.40;99.90